sensor_id;sensor_type;location;lat;lon;timestamp;temperature;humidity
22623;DHT22;11478;51.094;7.030;2023-05-20T00:01:52;10.80;99.90
22623;DHT22;11478;51.094;7.030;2023-05-20T00:04:18;10.70;99.90
22623;DHT22;11478;51.094;7.030;2023-05-20T00:06:59;10.70;99.90
22623;DHT22;11478;51.094;7.030;2023-05-20T00:09:25;10.70;99.90
22623;DHT22;11478;51.094;7.030;2023-05-20T00:11:51;10.60;99.90
22623;DHT22;11478;51.094;7.030;2023-05-20T00:14:17;10.60;99.90
22623;DHT22;11478;51.094;7.030;2023-05-20T00:16:43;10.70;99.90
22623;DHT22;11478;51.094;7.030;2023-05-20T00:19:09;10.70;99.90
22623;DHT22;11478;51.094;7.030;2023-05-20T00:21:35;10.70;99.90
22623;DHT22;11478;51.094;7.030;2023-05-20T00:24:01;10.70;99.90
22623;DHT22;11478;51.094;7.030;2023-05-20T00:26:28;10.60;99.90
22623;DHT22;11478;51.094;7.030;2023-05-20T00:28:54;10.60;99.90
22623;DHT22;11478;51.094;7.030;2023-05-20T00:31:26;10.50;99.90
22623;DHT22;11478;51.094;7.030;2023-05-20T00:33:52;10.50;99.90
22623;DHT22;11478;51.094;7.030;2023-05-20T00:36:24;10.50;99.90
22623;DHT22;11478;51.094;7.030;2023-05-20T00:38:49;10.40;99.90
22623;DHT22;11478;51.094;7.030;2023-05-20T00:41:16;10.40;99.90
22623;DHT22;11478;51.094;7.030;2023-05-20T00:43:43;10.40;99.90
22623;DHT22;11478;51.094;7.030;2023-05-20T00:46:11;10.40;99.90
22623;DHT22;11478;51.094;7.030;2023-05-20T00:48:42;10.30;99.90
22623;DHT22;11478;51.094;7.030;2023-05-20T00:51:10;10.40;99.90
22623;DHT22;11478;51.094;7.030;2023-05-20T00:53:41;10.30;99.90
22623;DHT22;11478;51.094;7.030;2023-05-20T00:56:08;10.30;99.90
22623;DHT22;11478;51.094;7.030;2023-05-20T00:58:35;10.30;99.90
22623;DHT22;11478;51.094;7.030;2023-05-20T01:01:02;10.30;99.90
22623;DHT22;11478;51.094;7.030;2023-05-20T01:03:30;10.20;99.90
22623;DHT22;11478;51.094;7.030;2023-05-20T01:05:57;10.20;99.90
22623;DHT22;11478;51.094;7.030;2023-05-20T01:08:24;10.20;99.90
22623;DHT22;11478;51.094;7.030;2023-05-20T01:11:13;10.10;99.90
22623;DHT22;11478;51.094;7.030;2023-05-20T01:13:53;10.10;99.90
22623;DHT22;11478;51.094;7.030;2023-05-20T01:16:21;10.00;99.90
22623;DHT22;11478;51.094;7.030;2023-05-20T01:18:52;9.90;99.90
22623;DHT22;11478;51.094;7.030;2023-05-20T01:21:20;9.90;99.90
22623;DHT22;11478;51.094;7.030;2023-05-20T01:23:50;9.90;99.90
22623;DHT22;11478;51.094;7.030;2023-05-20T01:26:16;9.90;99.90
22623;DHT22;11478;51.094;7.030;2023-05-20T01:28:43;9.80;99.90
22623;DHT22;11478;51.094;7.030;2023-05-20T01:31:31;9.80;99.90
22623;DHT22;11478;51.094;7.030;2023-05-20T01:33:58;9.80;99.90
22623;DHT22;11478;51.094;7.030;2023-05-20T01:36:26;9.80;99.90
22623;DHT22;11478;51.094;7.030;2023-05-20T01:38:53;9.80;99.90
22623;DHT22;11478;51.094;7.030;2023-05-20T01:41:20;9.80;99.90
22623;DHT22;11478;51.094;7.030;2023-05-20T01:43:47;9.80;99.90
22623;DHT22;11478;51.094;7.030;2023-05-20T01:46:18;9.80;99.90
22623;DHT22;11478;51.094;7.030;2023-05-20T01:48:45;9.70;99.90
22623;DHT22;11478;51.094;7.030;2023-05-20T01:51:12;9.70;99.90
22623;DHT22;11478;51.094;7.030;2023-05-20T01:53:45;9.60;99.90
22623;DHT22;11478;51.094;7.030;2023-05-20T01:56:11;9.60;99.90
22623;DHT22;11478;51.094;7.030;2023-05-20T01:58:56;9.50;99.90
22623;DHT22;11478;51.094;7.030;2023-05-20T02:01:22;9.40;99.90
22623;DHT22;11478;51.094;7.030;2023-05-20T02:04:09;9.40;99.90
22623;DHT22;11478;51.094;7.030;2023-05-20T02:07:07;9.40;99.90
22623;DHT22;11478;51.094;7.030;2023-05-20T02:09:34;9.40;99.90
22623;DHT22;11478;51.094;7.030;2023-05-20T02:12:07;9.40;99.90
22623;DHT22;11478;51.094;7.030;2023-05-20T02:14:33;9.40;99.90
22623;DHT22;11478;51.094;7.030;2023-05-20T02:17:05;9.40;99.90
22623;DHT22;11478;51.094;7.030;2023-05-20T02:19:31;9.30;99.90
22623;DHT22;11478;51.094;7.030;2023-05-20T02:22:05;9.30;99.90
22623;DHT22;11478;51.094;7.030;2023-05-20T02:24:35;9.20;99.90
22623;DHT22;11478;51.094;7.030;2023-05-20T02:27:04;9.10;99.90
22623;DHT22;11478;51.094;7.030;2023-05-20T02:29:42;9.20;99.90
22623;DHT22;11478;51.094;7.030;2023-05-20T02:32:18;9.20;99.90
22623;DHT22;11478;51.094;7.030;2023-05-20T02:34:59;9.20;99.90
22623;DHT22;11478;51.094;7.030;2023-05-20T02:37:25;9.10;99.90
22623;DHT22;11478;51.094;7.030;2023-05-20T02:39:55;9.10;99.90
22623;DHT22;11478;51.094;7.030;2023-05-20T02:42:22;8.90;99.90
22623;DHT22;11478;51.094;7.030;2023-05-20T02:44:51;8.90;99.90
22623;DHT22;11478;51.094;7.030;2023-05-20T02:47:25;8.80;99.90
22623;DHT22;11478;51.094;7.030;2023-05-20T02:49:55;8.70;99.90
22623;DHT22;11478;51.094;7.030;2023-05-20T02:52:35;8.70;99.90
22623;DHT22;11478;51.094;7.030;2023-05-20T02:55:02;8.60;99.90
22623;DHT22;11478;51.094;7.030;2023-05-20T02:57:35;8.60;99.90
22623;DHT22;11478;51.094;7.030;2023-05-20T03:00:07;8.60;99.90
22623;DHT22;11478;51.094;7.030;2023-05-20T03:02:49;8.50;99.90
22623;DHT22;11478;51.094;7.030;2023-05-20T03:05:20;8.50;99.90
22623;DHT22;11478;51.094;7.030;2023-05-20T03:07:51;8.40;99.90
22623;DHT22;11478;51.094;7.030;2023-05-20T03:10:17;8.40;99.90
22623;DHT22;11478;51.094;7.030;2023-05-20T03:12:43;8.40;99.90
22623;DHT22;11478;51.094;7.030;2023-05-20T03:15:10;8.40;99.90
22623;DHT22;11478;51.094;7.030;2023-05-20T03:17:45;8.50;99.90
22623;DHT22;11478;51.094;7.030;2023-05-20T03:20:11;8.40;99.90
22623;DHT22;11478;51.094;7.030;2023-05-20T03:22:42;8.40;99.90
22623;DHT22;11478;51.094;7.030;2023-05-20T03:25:08;8.40;99.90
22623;DHT22;11478;51.094;7.030;2023-05-20T03:27:37;8.40;99.90
22623;DHT22;11478;51.094;7.030;2023-05-20T03:30:05;8.30;99.90
22623;DHT22;11478;51.094;7.030;2023-05-20T03:32:39;8.40;99.90
22623;DHT22;11478;51.094;7.030;2023-05-20T03:35:05;8.40;99.90
22623;DHT22;11478;51.094;7.030;2023-05-20T03:37:36;8.40;99.90
22623;DHT22;11478;51.094;7.030;2023-05-20T03:40:02;8.40;99.90
22623;DHT22;11478;51.094;7.030;2023-05-20T03:42:38;8.40;99.90
22623;DHT22;11478;51.094;7.030;2023-05-20T03:45:05;8.30;99.90
22623;DHT22;11478;51.094;7.030;2023-05-20T03:47:50;8.40;99.90
22623;DHT22;11478;51.094;7.030;2023-05-20T03:50:16;8.40;99.90
22623;DHT22;11478;51.094;7.030;2023-05-20T03:52:49;8.50;99.90
22623;DHT22;11478;51.094;7.030;2023-05-20T03:55:16;8.50;99.90
22623;DHT22;11478;51.094;7.030;2023-05-20T03:57:50;8.50;99.90
22623;DHT22;11478;51.094;7.030;2023-05-20T04:00:17;8.50;99.90
22623;DHT22;11478;51.094;7.030;2023-05-20T04:02:59;8.60;99.90
22623;DHT22;11478;51.094;7.030;2023-05-20T04:05:25;8.70;99.90
22623;DHT22;11478;51.094;7.030;2023-05-20T04:07:51;8.90;99.90
22623;DHT22;11478;51.094;7.030;2023-05-20T04:10:18;9.00;99.90
22623;DHT22;11478;51.094;7.030;2023-05-20T04:12:46;9.20;99.90
22623;DHT22;11478;51.094;7.030;2023-05-20T04:15:12;9.40;99.90
22623;DHT22;11478;51.094;7.030;2023-05-20T04:17:41;9.70;99.90
22623;DHT22;11478;51.094;7.030;2023-05-20T04:20:07;10.00;99.90
22623;DHT22;11478;51.094;7.030;2023-05-20T04:22:44;10.20;99.90
22623;DHT22;11478;51.094;7.030;2023-05-20T04:25:11;10.40;99.90
22623;DHT22;11478;51.094;7.030;2023-05-20T04:27:38;10.60;99.90
22623;DHT22;11478;51.094;7.030;2023-05-20T04:30:05;10.70;99.90
22623;DHT22;11478;51.094;7.030;2023-05-20T04:32:50;10.90;99.90
22623;DHT22;11478;51.094;7.030;2023-05-20T04:35:16;11.00;99.90
22623;DHT22;11478;51.094;7.030;2023-05-20T04:37:42;11.10;99.90
22623;DHT22;11478;51.094;7.030;2023-05-20T04:40:17;11.20;99.90
22623;DHT22;11478;51.094;7.030;2023-05-20T04:42:48;11.30;99.90
22623;DHT22;11478;51.094;7.030;2023-05-20T04:45:14;11.30;99.90
22623;DHT22;11478;51.094;7.030;2023-05-20T04:47:40;11.40;99.90
22623;DHT22;11478;51.094;7.030;2023-05-20T04:50:08;11.40;99.90
22623;DHT22;11478;51.094;7.030;2023-05-20T04:52:48;11.50;99.90
22623;DHT22;11478;51.094;7.030;2023-05-20T04:55:14;11.60;99.90
22623;DHT22;11478;51.094;7.030;2023-05-20T04:57:58;11.70;99.90
22623;DHT22;11478;51.094;7.030;2023-05-20T05:00:24;11.90;99.90
22623;DHT22;11478;51.094;7.030;2023-05-20T05:02:54;11.90;99.90
22623;DHT22;11478;51.094;7.030;2023-05-20T05:05:20;12.00;99.90
22623;DHT22;11478;51.094;7.030;2023-05-20T05:07:52;12.10;99.90
22623;DHT22;11478;51.094;7.030;2023-05-20T05:10:18;12.20;99.90
22623;DHT22;11478;51.094;7.030;2023-05-20T05:12:52;12.30;99.90
22623;DHT22;11478;51.094;7.030;2023-05-20T05:15:18;12.40;99.90
22623;DHT22;11478;51.094;7.030;2023-05-20T05:17:48;12.50;99.90
22623;DHT22;11478;51.094;7.030;2023-05-20T05:20:14;12.50;99.90
22623;DHT22;11478;51.094;7.030;2023-05-20T05:22:41;12.60;99.90
22623;DHT22;11478;51.094;7.030;2023-05-20T05:25:07;12.70;99.90
22623;DHT22;11478;51.094;7.030;2023-05-20T05:27:39;12.80;99.90
22623;DHT22;11478;51.094;7.030;2023-05-20T05:30:05;13.00;99.90
22623;DHT22;11478;51.094;7.030;2023-05-20T05:32:33;13.10;99.90
22623;DHT22;11478;51.094;7.030;2023-05-20T05:34:59;13.20;99.90
22623;DHT22;11478;51.094;7.030;2023-05-20T05:37:25;13.30;99.90
22623;DHT22;11478;51.094;7.030;2023-05-20T05:39:51;13.40;99.90
22623;DHT22;11478;51.094;7.030;2023-05-20T05:42:17;13.40;99.90
22623;DHT22;11478;51.094;7.030;2023-05-20T05:44:43;13.50;99.90
22623;DHT22;11478;51.094;7.030;2023-05-20T05:47:09;13.60;99.90
22623;DHT22;11478;51.094;7.030;2023-05-20T05:49:37;13.60;99.90
22623;DHT22;11478;51.094;7.030;2023-05-20T05:52:03;13.60;99.90
22623;DHT22;11478;51.094;7.030;2023-05-20T05:54:28;13.60;99.90
22623;DHT22;11478;51.094;7.030;2023-05-20T05:56:55;13.60;99.90
22623;DHT22;11478;51.094;7.030;2023-05-20T05:59:24;13.50;99.90
22623;DHT22;11478;51.094;7.030;2023-05-20T06:01:50;13.50;99.90
22623;DHT22;11478;51.094;7.030;2023-05-20T06:04:22;13.50;99.90
22623;DHT22;11478;51.094;7.030;2023-05-20T06:06:48;13.40;99.90
22623;DHT22;11478;51.094;7.030;2023-05-20T06:09:15;13.40;99.90
22623;DHT22;11478;51.094;7.030;2023-05-20T06:11:41;13.50;99.90
22623;DHT22;11478;51.094;7.030;2023-05-20T06:14:08;13.50;99.90
22623;DHT22;11478;51.094;7.030;2023-05-20T06:16:34;13.50;99.90
22623;DHT22;11478;51.094;7.030;2023-05-20T06:19:01;13.60;99.90
22623;DHT22;11478;51.094;7.030;2023-05-20T06:21:28;13.60;99.90
22623;DHT22;11478;51.094;7.030;2023-05-20T06:23:54;13.60;99.90
22623;DHT22;11478;51.094;7.030;2023-05-20T06:26:20;13.70;99.90
22623;DHT22;11478;51.094;7.030;2023-05-20T06:28:47;13.70;99.90
22623;DHT22;11478;51.094;7.030;2023-05-20T06:31:13;13.80;99.90
22623;DHT22;11478;51.094;7.030;2023-05-20T06:33:40;13.80;99.90
22623;DHT22;11478;51.094;7.030;2023-05-20T06:36:06;13.90;99.90
22623;DHT22;11478;51.094;7.030;2023-05-20T06:38:32;13.90;99.90
22623;DHT22;11478;51.094;7.030;2023-05-20T06:40:58;14.00;99.90
22623;DHT22;11478;51.094;7.030;2023-05-20T06:43:34;14.00;99.90
22623;DHT22;11478;51.094;7.030;2023-05-20T06:45:59;14.10;99.90
22623;DHT22;11478;51.094;7.030;2023-05-20T06:48:28;14.10;99.90
22623;DHT22;11478;51.094;7.030;2023-05-20T06:50:56;14.10;99.90
22623;DHT22;11478;51.094;7.030;2023-05-20T06:53:22;14.20;99.90
22623;DHT22;11478;51.094;7.030;2023-05-20T06:55:56;14.20;99.90
22623;DHT22;11478;51.094;7.030;2023-05-20T06:58:22;14.20;99.90
22623;DHT22;11478;51.094;7.030;2023-05-20T07:00:48;14.20;99.90
22623;DHT22;11478;51.094;7.030;2023-05-20T07:03:14;14.20;99.90
22623;DHT22;11478;51.094;7.030;2023-05-20T07:05:41;14.20;99.90
22623;DHT22;11478;51.094;7.030;2023-05-20T07:08:06;14.20;99.90
22623;DHT22;11478;51.094;7.030;2023-05-20T07:10:33;14.20;99.90
22623;DHT22;11478;51.094;7.030;2023-05-20T07:12:59;14.30;99.90
22623;DHT22;11478;51.094;7.030;2023-05-20T07:15:25;14.30;99.90
22623;DHT22;11478;51.094;7.030;2023-05-20T07:17:51;14.30;99.90
22623;DHT22;11478;51.094;7.030;2023-05-20T07:20:18;14.40;99.90
22623;DHT22;11478;51.094;7.030;2023-05-20T07:22:45;14.40;99.90
22623;DHT22;11478;51.094;7.030;2023-05-20T07:25:14;14.40;99.90
22623;DHT22;11478;51.094;7.030;2023-05-20T07:27:40;14.50;99.90
22623;DHT22;11478;51.094;7.030;2023-05-20T07:30:20;14.60;99.90
22623;DHT22;11478;51.094;7.030;2023-05-20T07:32:46;14.60;99.90
22623;DHT22;11478;51.094;7.030;2023-05-20T07:35:15;14.60;99.90
22623;DHT22;11478;51.094;7.030;2023-05-20T07:37:41;14.70;99.90
22623;DHT22;11478;51.094;7.030;2023-05-20T07:40:14;14.70;99.90
22623;DHT22;11478;51.094;7.030;2023-05-20T07:42:39;14.70;99.90
22623;DHT22;11478;51.094;7.030;2023-05-20T07:45:07;14.70;99.90
22623;DHT22;11478;51.094;7.030;2023-05-20T07:47:33;14.80;99.90
22623;DHT22;11478;51.094;7.030;2023-05-20T07:50:01;14.80;99.90
22623;DHT22;11478;51.094;7.030;2023-05-20T07:52:28;14.80;99.90
22623;DHT22;11478;51.094;7.030;2023-05-20T07:54:53;14.80;99.90
22623;DHT22;11478;51.094;7.030;2023-05-20T07:57:20;14.90;99.90
22623;DHT22;11478;51.094;7.030;2023-05-20T07:59:46;14.90;99.90
22623;DHT22;11478;51.094;7.030;2023-05-20T08:02:18;14.90;99.90
22623;DHT22;11478;51.094;7.030;2023-05-20T08:04:44;14.90;99.90
22623;DHT22;11478;51.094;7.030;2023-05-20T08:07:12;14.90;99.90
22623;DHT22;11478;51.094;7.030;2023-05-20T08:09:42;14.90;99.90
22623;DHT22;11478;51.094;7.030;2023-05-20T08:12:08;14.90;99.90
22623;DHT22;11478;51.094;7.030;2023-05-20T08:14:33;15.00;99.90
22623;DHT22;11478;51.094;7.030;2023-05-20T08:16:59;15.00;99.90
22623;DHT22;11478;51.094;7.030;2023-05-20T08:19:25;15.00;99.90
22623;DHT22;11478;51.094;7.030;2023-05-20T08:21:52;15.10;99.90
22623;DHT22;11478;51.094;7.030;2023-05-20T08:24:18;15.10;99.90
22623;DHT22;11478;51.094;7.030;2023-05-20T08:26:45;15.10;99.90
22623;DHT22;11478;51.094;7.030;2023-05-20T08:29:11;15.20;99.90
22623;DHT22;11478;51.094;7.030;2023-05-20T08:31:37;15.20;99.90
22623;DHT22;11478;51.094;7.030;2023-05-20T08:34:02;15.20;99.90
22623;DHT22;11478;51.094;7.030;2023-05-20T08:36:29;15.20;99.90
22623;DHT22;11478;51.094;7.030;2023-05-20T08:38:55;15.20;99.90
22623;DHT22;11478;51.094;7.030;2023-05-20T08:41:31;15.20;99.90
22623;DHT22;11478;51.094;7.030;2023-05-20T08:43:58;15.20;99.90
22623;DHT22;11478;51.094;7.030;2023-05-20T08:46:25;15.30;99.90
22623;DHT22;11478;51.094;7.030;2023-05-20T08:48:51;15.30;99.90
22623;DHT22;11478;51.094;7.030;2023-05-20T08:51:20;15.30;99.90
22623;DHT22;11478;51.094;7.030;2023-05-20T08:53:47;15.40;99.90
22623;DHT22;11478;51.094;7.030;2023-05-20T08:56:12;15.50;99.90
22623;DHT22;11478;51.094;7.030;2023-05-20T08:58:48;15.40;99.90
22623;DHT22;11478;51.094;7.030;2023-05-20T09:01:14;15.40;99.90
22623;DHT22;11478;51.094;7.030;2023-05-20T09:03:41;15.40;99.90
22623;DHT22;11478;51.094;7.030;2023-05-20T09:06:08;15.50;99.90
22623;DHT22;11478;51.094;7.030;2023-05-20T09:08:34;15.50;99.90
22623;DHT22;11478;51.094;7.030;2023-05-20T09:11:01;15.50;99.90
22623;DHT22;11478;51.094;7.030;2023-05-20T09:13:37;15.50;99.90
22623;DHT22;11478;51.094;7.030;2023-05-20T09:16:04;15.60;99.90
22623;DHT22;11478;51.094;7.030;2023-05-20T09:18:30;15.50;99.90
22623;DHT22;11478;51.094;7.030;2023-05-20T09:20:56;15.60;99.90
22623;DHT22;11478;51.094;7.030;2023-05-20T09:23:47;15.60;99.90
22623;DHT22;11478;51.094;7.030;2023-05-20T09:26:13;15.60;99.90
22623;DHT22;11478;51.094;7.030;2023-05-20T09:28:46;15.60;99.90
22623;DHT22;11478;51.094;7.030;2023-05-20T09:31:15;15.70;99.90
22623;DHT22;11478;51.094;7.030;2023-05-20T09:33:41;15.70;99.90
22623;DHT22;11478;51.094;7.030;2023-05-20T09:36:08;15.70;99.90
22623;DHT22;11478;51.094;7.030;2023-05-20T09:38:39;15.80;99.90
22623;DHT22;11478;51.094;7.030;2023-05-20T09:41:11;15.90;99.90
22623;DHT22;11478;51.094;7.030;2023-05-20T09:43:38;16.00;99.90
22623;DHT22;11478;51.094;7.030;2023-05-20T09:46:06;16.10;99.90
22623;DHT22;11478;51.094;7.030;2023-05-20T09:48:35;16.10;99.90
22623;DHT22;11478;51.094;7.030;2023-05-20T09:51:09;16.20;99.90
22623;DHT22;11478;51.094;7.030;2023-05-20T09:53:36;16.30;99.90
22623;DHT22;11478;51.094;7.030;2023-05-20T09:56:17;16.30;99.90
22623;DHT22;11478;51.094;7.030;2023-05-20T09:58:45;16.40;99.90
22623;DHT22;11478;51.094;7.030;2023-05-20T10:01:15;16.50;99.90
22623;DHT22;11478;51.094;7.030;2023-05-20T10:03:41;16.50;99.90
22623;DHT22;11478;51.094;7.030;2023-05-20T10:09:00;16.60;99.90
22623;DHT22;11478;51.094;7.030;2023-05-20T10:11:46;16.60;99.90
22623;DHT22;11478;51.094;7.030;2023-05-20T10:20:48;16.50;99.90
22623;DHT22;11478;51.094;7.030;2023-05-20T10:23:28;16.50;99.90
22623;DHT22;11478;51.094;7.030;2023-05-20T10:25:56;16.50;99.90
22623;DHT22;11478;51.094;7.030;2023-05-20T10:28:36;16.40;99.90
22623;DHT22;11478;51.094;7.030;2023-05-20T10:31:42;16.30;99.90
22623;DHT22;11478;51.094;7.030;2023-05-20T10:34:14;16.20;99.90
22623;DHT22;11478;51.094;7.030;2023-05-20T10:37:00;16.10;99.90
22623;DHT22;11478;51.094;7.030;2023-05-20T10:39:30;16.00;99.90
22623;DHT22;11478;51.094;7.030;2023-05-20T10:42:09;15.90;99.90
22623;DHT22;11478;51.094;7.030;2023-05-20T10:44:46;15.80;99.90
22623;DHT22;11478;51.094;7.030;2023-05-20T10:47:30;15.80;99.90
22623;DHT22;11478;51.094;7.030;2023-05-20T10:49:56;15.70;99.90
22623;DHT22;11478;51.094;7.030;2023-05-20T10:52:35;15.70;99.90
22623;DHT22;11478;51.094;7.030;2023-05-20T10:55:05;15.70;99.90
22623;DHT22;11478;51.094;7.030;2023-05-20T10:57:38;15.70;99.90
22623;DHT22;11478;51.094;7.030;2023-05-20T11:00:08;15.70;99.90
22623;DHT22;11478;51.094;7.030;2023-05-20T11:02:35;15.70;99.90
22623;DHT22;11478;51.094;7.030;2023-05-20T11:05:03;15.70;99.90
22623;DHT22;11478;51.094;7.030;2023-05-20T11:07:31;15.70;99.90
22623;DHT22;11478;51.094;7.030;2023-05-20T11:09:59;15.80;99.90
22623;DHT22;11478;51.094;7.030;2023-05-20T11:12:27;15.90;99.90
22623;DHT22;11478;51.094;7.030;2023-05-20T11:14:53;16.00;99.90
22623;DHT22;11478;51.094;7.030;2023-05-20T11:17:19;16.10;99.90
22623;DHT22;11478;51.094;7.030;2023-05-20T11:19:46;16.20;99.90
22623;DHT22;11478;51.094;7.030;2023-05-20T11:22:13;16.20;99.90
22623;DHT22;11478;51.094;7.030;2023-05-20T11:24:39;16.40;99.90
22623;DHT22;11478;51.094;7.030;2023-05-20T11:27:06;16.50;99.90
22623;DHT22;11478;51.094;7.030;2023-05-20T11:29:35;16.50;99.90
22623;DHT22;11478;51.094;7.030;2023-05-20T11:32:01;16.60;99.90
22623;DHT22;11478;51.094;7.030;2023-05-20T11:34:37;16.70;99.90
22623;DHT22;11478;51.094;7.030;2023-05-20T11:37:17;16.70;99.90
22623;DHT22;11478;51.094;7.030;2023-05-20T11:39:44;16.70;99.90
22623;DHT22;11478;51.094;7.030;2023-05-20T11:42:14;16.70;99.90
22623;DHT22;11478;51.094;7.030;2023-05-20T11:44:45;16.90;99.90
22623;DHT22;11478;51.094;7.030;2023-05-20T11:47:23;16.90;99.90
22623;DHT22;11478;51.094;7.030;2023-05-20T11:49:52;16.90;99.90
22623;DHT22;11478;51.094;7.030;2023-05-20T11:52:17;17.00;99.90
22623;DHT22;11478;51.094;7.030;2023-05-20T11:54:51;17.10;99.90
22623;DHT22;11478;51.094;7.030;2023-05-20T11:57:18;17.10;99.90
22623;DHT22;11478;51.094;7.030;2023-05-20T11:59:44;17.20;99.90
22623;DHT22;11478;51.094;7.030;2023-05-20T12:02:09;17.20;99.90
22623;DHT22;11478;51.094;7.030;2023-05-20T12:04:36;17.20;99.90
22623;DHT22;11478;51.094;7.030;2023-05-20T12:07:02;17.10;99.90
22623;DHT22;11478;51.094;7.030;2023-05-20T12:09:29;17.20;99.90
22623;DHT22;11478;51.094;7.030;2023-05-20T12:11:55;17.20;99.90
22623;DHT22;11478;51.094;7.030;2023-05-20T12:14:21;17.20;99.90
22623;DHT22;11478;51.094;7.030;2023-05-20T12:16:47;17.20;99.90
22623;DHT22;11478;51.094;7.030;2023-05-20T12:19:14;17.20;99.90
22623;DHT22;11478;51.094;7.030;2023-05-20T12:21:40;17.30;99.90
22623;DHT22;11478;51.094;7.030;2023-05-20T12:24:10;17.40;99.90
22623;DHT22;11478;51.094;7.030;2023-05-20T12:26:37;17.50;99.90
22623;DHT22;11478;51.094;7.030;2023-05-20T12:29:12;17.60;99.90
22623;DHT22;11478;51.094;7.030;2023-05-20T12:31:41;17.60;99.90
22623;DHT22;11478;51.094;7.030;2023-05-20T12:34:10;17.70;99.90
22623;DHT22;11478;51.094;7.030;2023-05-20T12:36:36;17.80;99.90
22623;DHT22;11478;51.094;7.030;2023-05-20T12:39:28;17.90;99.90
22623;DHT22;11478;51.094;7.030;2023-05-20T12:42:22;18.00;99.90
22623;DHT22;11478;51.094;7.030;2023-05-20T12:44:50;18.10;99.90
22623;DHT22;11478;51.094;7.030;2023-05-20T12:47:20;18.10;99.90
22623;DHT22;11478;51.094;7.030;2023-05-20T12:49:47;18.10;99.90
22623;DHT22;11478;51.094;7.030;2023-05-20T12:52:15;18.20;99.90
22623;DHT22;11478;51.094;7.030;2023-05-20T12:54:40;18.20;99.90
22623;DHT22;11478;51.094;7.030;2023-05-20T12:57:14;18.20;99.90
22623;DHT22;11478;51.094;7.030;2023-05-20T12:59:40;18.30;99.90
22623;DHT22;11478;51.094;7.030;2023-05-20T13:02:06;18.30;99.90
22623;DHT22;11478;51.094;7.030;2023-05-20T13:04:32;18.40;99.90
22623;DHT22;11478;51.094;7.030;2023-05-20T13:06:58;18.40;99.90
22623;DHT22;11478;51.094;7.030;2023-05-20T13:09:24;18.40;99.90
22623;DHT22;11478;51.094;7.030;2023-05-20T13:11:54;18.40;99.90
22623;DHT22;11478;51.094;7.030;2023-05-20T13:14:21;18.30;99.90
22623;DHT22;11478;51.094;7.030;2023-05-20T13:16:59;18.40;99.90
22623;DHT22;11478;51.094;7.030;2023-05-20T13:19:25;18.30;99.90
22623;DHT22;11478;51.094;7.030;2023-05-20T13:21:56;18.30;99.90
22623;DHT22;11478;51.094;7.030;2023-05-20T13:24:25;18.30;99.90
22623;DHT22;11478;51.094;7.030;2023-05-20T13:52:36;18.30;99.90
22623;DHT22;11478;51.094;7.030;2023-05-20T13:55:02;18.40;99.90
22623;DHT22;11478;51.094;7.030;2023-05-20T13:57:29;18.50;99.90
22623;DHT22;11478;51.094;7.030;2023-05-20T13:59:59;18.50;99.90
22623;DHT22;11478;51.094;7.030;2023-05-20T14:02:26;18.50;99.90
22623;DHT22;11478;51.094;7.030;2023-05-20T14:04:58;18.50;99.90
22623;DHT22;11478;51.094;7.030;2023-05-20T14:07:25;18.50;99.90
22623;DHT22;11478;51.094;7.030;2023-05-20T14:09:54;18.60;99.90
22623;DHT22;11478;51.094;7.030;2023-05-20T14:12:25;18.70;99.90
22623;DHT22;11478;51.094;7.030;2023-05-20T14:14:54;18.60;99.90
22623;DHT22;11478;51.094;7.030;2023-05-20T14:17:28;18.50;99.90
22623;DHT22;11478;51.094;7.030;2023-05-20T14:19:59;18.40;99.90
22623;DHT22;11478;51.094;7.030;2023-05-20T14:22:25;18.40;99.90
22623;DHT22;11478;51.094;7.030;2023-05-20T14:24:53;18.40;99.90
22623;DHT22;11478;51.094;7.030;2023-05-20T14:27:19;18.40;99.90
22623;DHT22;11478;51.094;7.030;2023-05-20T14:29:48;18.40;99.90
22623;DHT22;11478;51.094;7.030;2023-05-20T14:32:15;18.40;99.90
22623;DHT22;11478;51.094;7.030;2023-05-20T14:35:01;18.40;99.90
22623;DHT22;11478;51.094;7.030;2023-05-20T14:37:28;18.40;99.90
22623;DHT22;11478;51.094;7.030;2023-05-20T14:39:58;18.50;99.90
22623;DHT22;11478;51.094;7.030;2023-05-20T14:42:26;18.60;99.90
22623;DHT22;11478;51.094;7.030;2023-05-20T14:45:07;18.70;99.90
22623;DHT22;11478;51.094;7.030;2023-05-20T14:47:35;18.70;99.90
22623;DHT22;11478;51.094;7.030;2023-05-20T14:50:02;18.60;99.90
22623;DHT22;11478;51.094;7.030;2023-05-20T14:52:28;18.50;99.90
22623;DHT22;11478;51.094;7.030;2023-05-20T14:54:54;18.50;99.90
22623;DHT22;11478;51.094;7.030;2023-05-20T14:57:21;18.50;99.90
22623;DHT22;11478;51.094;7.030;2023-05-20T14:59:54;18.40;99.90
22623;DHT22;11478;51.094;7.030;2023-05-20T15:02:19;18.40;99.90
22623;DHT22;11478;51.094;7.030;2023-05-20T15:04:47;18.30;99.90
22623;DHT22;11478;51.094;7.030;2023-05-20T15:07:20;18.20;99.90
22623;DHT22;11478;51.094;7.030;2023-05-20T15:09:47;18.20;99.90
22623;DHT22;11478;51.094;7.030;2023-05-20T15:12:17;18.10;99.90
22623;DHT22;11478;51.094;7.030;2023-05-20T15:14:43;18.10;99.90
22623;DHT22;11478;51.094;7.030;2023-05-20T15:17:15;18.10;99.90
22623;DHT22;11478;51.094;7.030;2023-05-20T15:19:41;18.10;99.90
22623;DHT22;11478;51.094;7.030;2023-05-20T15:22:11;18.00;99.90
22623;DHT22;11478;51.094;7.030;2023-05-20T15:24:42;18.00;99.90
22623;DHT22;11478;51.094;7.030;2023-05-20T15:27:08;17.90;99.90
22623;DHT22;11478;51.094;7.030;2023-05-20T15:29:34;17.90;99.90
22623;DHT22;11478;51.094;7.030;2023-05-20T15:32:02;17.90;99.90
22623;DHT22;11478;51.094;7.030;2023-05-20T15:34:36;17.90;99.90
22623;DHT22;11478;51.094;7.030;2023-05-20T15:37:02;17.90;99.90
22623;DHT22;11478;51.094;7.030;2023-05-20T15:39:39;18.00;99.90
22623;DHT22;11478;51.094;7.030;2023-05-20T15:42:05;18.10;99.90
22623;DHT22;11478;51.094;7.030;2023-05-20T15:44:36;18.10;99.90
22623;DHT22;11478;51.094;7.030;2023-05-20T15:47:12;18.00;99.90
22623;DHT22;11478;51.094;7.030;2023-05-20T15:49:38;17.90;99.90
22623;DHT22;11478;51.094;7.030;2023-05-20T15:52:10;17.80;99.90
22623;DHT22;11478;51.094;7.030;2023-05-20T15:54:39;17.80;99.90
22623;DHT22;11478;51.094;7.030;2023-05-20T15:57:20;17.80;99.90
22623;DHT22;11478;51.094;7.030;2023-05-20T15:59:48;17.70;99.90
22623;DHT22;11478;51.094;7.030;2023-05-20T16:02:14;17.70;99.90
22623;DHT22;11478;51.094;7.030;2023-05-20T16:04:40;17.60;99.90
22623;DHT22;11478;51.094;7.030;2023-05-20T16:07:06;17.50;99.90
22623;DHT22;11478;51.094;7.030;2023-05-20T16:09:32;17.50;99.90
22623;DHT22;11478;51.094;7.030;2023-05-20T16:11:59;17.50;99.90
22623;DHT22;11478;51.094;7.030;2023-05-20T16:14:24;17.40;99.90
22623;DHT22;11478;51.094;7.030;2023-05-20T16:17:00;17.40;99.90
22623;DHT22;11478;51.094;7.030;2023-05-20T16:19:28;17.30;99.90
22623;DHT22;11478;51.094;7.030;2023-05-20T16:21:54;17.30;99.90